sensor_id;sensor_type;location;lat;lon;timestamp;P1;durP1;ratioP1;P2;durP2;ratioP2
8219;SDS011;4151;51.110;7.020;2022-12-29T00:01:15;2.37;;;1.67;;
8219;SDS011;4151;51.110;7.020;2022-12-29T00:03:41;1.73;;;1.53;;
8219;SDS011;4151;51.110;7.020;2022-12-29T00:06:06;2.20;;;1.50;;
8219;SDS011;4151;51.110;7.020;2022-12-29T00:08:32;1.17;;;1.07;;
8219;SDS011;4151;51.110;7.020;2022-12-29T00:11:07;2.43;;;1.33;;
8219;SDS011;4151;51.110;7.020;2022-12-29T00:13:34;1.43;;;1.20;;
8219;SDS011;4151;51.110;7.020;2022-12-29T00:16:19;2.17;;;1.37;;
8219;SDS011;4151;51.110;7.020;2022-12-29T00:18:45;2.37;;;1.60;;
8219;SDS011;4151;51.110;7.020;2022-12-29T00:21:14;1.67;;;1.30;;
8219;SDS011;4151;51.110;7.020;2022-12-29T00:23:59;1.60;;;1.13;;
8219;SDS011;4151;51.110;7.020;2022-12-29T00:26:43;1.70;;;1.53;;
8219;SDS011;4151;51.110;7.020;2022-12-29T00:29:29;2.40;;;1.23;;
8219;SDS011;4151;51.110;7.020;2022-12-29T00:32:13;2.80;;;0.97;;
8219;SDS011;4151;51.110;7.020;2022-12-29T00:34:57;1.40;;;1.10;;
8219;SDS011;4151;51.110;7.020;2022-12-29T00:37:38;1.47;;;1.23;;
8219;SDS011;4151;51.110;7.020;2022-12-29T00:40:26;2.20;;;1.20;;
8219;SDS011;4151;51.110;7.020;2022-12-29T00:43:10;1.50;;;1.10;;
8219;SDS011;4151;51.110;7.020;2022-12-29T00:45:54;1.07;;;0.97;;
8219;SDS011;4151;51.110;7.020;2022-12-29T00:48:20;3.23;;;1.40;;
8219;SDS011;4151;51.110;7.020;2022-12-29T00:51:05;1.63;;;1.00;;
8219;SDS011;4151;51.110;7.020;2022-12-29T00:53:31;0.80;;;0.80;;
8219;SDS011;4151;51.110;7.020;2022-12-29T00:55:57;1.50;;;1.03;;
8219;SDS011;4151;51.110;7.020;2022-12-29T00:58:23;0.97;;;0.90;;
8219;SDS011;4151;51.110;7.020;2022-12-29T01:00:48;0.90;;;0.90;;
8219;SDS011;4151;51.110;7.020;2022-12-29T01:03:14;0.80;;;0.70;;
8219;SDS011;4151;51.110;7.020;2022-12-29T01:05:39;1.10;;;1.00;;
8219;SDS011;4151;51.110;7.020;2022-12-29T01:08:05;1.60;;;1.50;;
8219;SDS011;4151;51.110;7.020;2022-12-29T01:10:30;1.30;;;1.03;;
8219;SDS011;4151;51.110;7.020;2022-12-29T01:12:56;0.87;;;0.87;;
8219;SDS011;4151;51.110;7.020;2022-12-29T01:15:22;1.20;;;0.80;;
8219;SDS011;4151;51.110;7.020;2022-12-29T01:17:47;0.70;;;0.70;;
8219;SDS011;4151;51.110;7.020;2022-12-29T01:20:13;1.10;;;0.90;;
8219;SDS011;4151;51.110;7.020;2022-12-29T01:22:38;0.80;;;0.60;;
8219;SDS011;4151;51.110;7.020;2022-12-29T01:25:04;0.80;;;0.80;;
8219;SDS011;4151;51.110;7.020;2022-12-29T01:27:31;0.70;;;0.70;;
8219;SDS011;4151;51.110;7.020;2022-12-29T01:29:56;0.70;;;0.70;;
8219;SDS011;4151;51.110;7.020;2022-12-29T01:32:22;0.87;;;0.73;;
8219;SDS011;4151;51.110;7.020;2022-12-29T01:34:48;0.80;;;0.70;;
8219;SDS011;4151;51.110;7.020;2022-12-29T01:37:14;5.00;;;0.70;;
8219;SDS011;4151;51.110;7.020;2022-12-29T01:39:39;1.17;;;0.80;;
8219;SDS011;4151;51.110;7.020;2022-12-29T01:42:05;1.87;;;0.90;;
8219;SDS011;4151;51.110;7.020;2022-12-29T01:44:50;2.07;;;0.83;;
8219;SDS011;4151;51.110;7.020;2022-12-29T01:47:30;1.10;;;0.77;;
8219;SDS011;4151;51.110;7.020;2022-12-29T01:50:11;0.90;;;0.70;;
8219;SDS011;4151;51.110;7.020;2022-12-29T01:53:03;0.93;;;0.80;;
8219;SDS011;4151;51.110;7.020;2022-12-29T01:55:37;2.03;;;0.97;;
8219;SDS011;4151;51.110;7.020;2022-12-29T01:58:13;0.80;;;0.80;;
8219;SDS011;4151;51.110;7.020;2022-12-29T02:00:42;0.87;;;0.63;;
8219;SDS011;4151;51.110;7.020;2022-12-29T02:03:08;1.07;;;0.70;;
8219;SDS011;4151;51.110;7.020;2022-12-29T02:08:17;7.60;;;1.27;;
8219;SDS011;4151;51.110;7.020;2022-12-29T02:10:45;1.13;;;0.70;;
8219;SDS011;4151;51.110;7.020;2022-12-29T02:13:11;7.20;;;0.90;;
8219;SDS011;4151;51.110;7.020;2022-12-29T02:16:00;0.80;;;0.80;;
8219;SDS011;4151;51.110;7.020;2022-12-29T02:18:44;0.70;;;0.70;;
8219;SDS011;4151;51.110;7.020;2022-12-29T02:27:11;2.60;;;1.00;;
8219;SDS011;4151;51.110;7.020;2022-12-29T02:32:45;3.97;;;0.80;;
8219;SDS011;4151;51.110;7.020;2022-12-29T02:37:58;2.10;;;0.97;;
8219;SDS011;4151;51.110;7.020;2022-12-29T02:43:15;3.77;;;0.80;;
8219;SDS011;4151;51.110;7.020;2022-12-29T02:48:51;2.17;;;0.70;;
8219;SDS011;4151;51.110;7.020;2022-12-29T02:51:23;1.40;;;1.10;;
8219;SDS011;4151;51.110;7.020;2022-12-29T02:53:53;4.00;;;1.00;;
8219;SDS011;4151;51.110;7.020;2022-12-29T02:56:39;3.13;;;0.70;;
8219;SDS011;4151;51.110;7.020;2022-12-29T02:59:05;3.73;;;0.83;;
8219;SDS011;4151;51.110;7.020;2022-12-29T03:01:45;1.43;;;0.60;;
8219;SDS011;4151;51.110;7.020;2022-12-29T03:04:50;3.10;;;0.63;;
8219;SDS011;4151;51.110;7.020;2022-12-29T03:19:02;0.97;;;0.87;;
8219;SDS011;4151;51.110;7.020;2022-12-29T03:21:37;1.43;;;0.70;;
8219;SDS011;4151;51.110;7.020;2022-12-29T03:24:28;2.50;;;0.70;;
8219;SDS011;4151;51.110;7.020;2022-12-29T03:26:57;4.83;;;1.10;;
8219;SDS011;4151;51.110;7.020;2022-12-29T03:29:26;1.63;;;0.70;;
8219;SDS011;4151;51.110;7.020;2022-12-29T03:31:54;0.83;;;0.70;;
8219;SDS011;4151;51.110;7.020;2022-12-29T03:34:21;5.23;;;0.70;;
8219;SDS011;4151;51.110;7.020;2022-12-29T03:36:52;2.13;;;0.70;;
8219;SDS011;4151;51.110;7.020;2022-12-29T03:39:21;2.73;;;0.97;;
8219;SDS011;4151;51.110;7.020;2022-12-29T03:41:48;1.80;;;0.90;;
8219;SDS011;4151;51.110;7.020;2022-12-29T03:44:17;0.60;;;0.60;;
8219;SDS011;4151;51.110;7.020;2022-12-29T03:46:42;1.13;;;0.60;;
8219;SDS011;4151;51.110;7.020;2022-12-29T03:49:08;0.90;;;0.70;;
8219;SDS011;4151;51.110;7.020;2022-12-29T03:51:33;0.77;;;0.70;;
8219;SDS011;4151;51.110;7.020;2022-12-29T03:53:59;1.77;;;0.70;;
8219;SDS011;4151;51.110;7.020;2022-12-29T03:56:25;0.73;;;0.73;;
8219;SDS011;4151;51.110;7.020;2022-12-29T03:58:50;4.03;;;0.80;;
8219;SDS011;4151;51.110;7.020;2022-12-29T04:01:16;0.70;;;0.60;;
8219;SDS011;4151;51.110;7.020;2022-12-29T04:03:41;0.70;;;0.70;;
8219;SDS011;4151;51.110;7.020;2022-12-29T04:06:07;0.80;;;0.80;;
8219;SDS011;4151;51.110;7.020;2022-12-29T04:08:33;0.90;;;0.60;;
8219;SDS011;4151;51.110;7.020;2022-12-29T04:10:58;0.60;;;0.60;;
8219;SDS011;4151;51.110;7.020;2022-12-29T04:13:24;1.47;;;0.97;;
8219;SDS011;4151;51.110;7.020;2022-12-29T04:15:49;1.00;;;0.60;;
8219;SDS011;4151;51.110;7.020;2022-12-29T04:18:15;0.83;;;0.70;;
8219;SDS011;4151;51.110;7.020;2022-12-29T04:20:41;1.47;;;0.63;;
8219;SDS011;4151;51.110;7.020;2022-12-29T04:23:36;1.50;;;0.77;;
8219;SDS011;4151;51.110;7.020;2022-12-29T04:26:03;1.40;;;0.80;;
8219;SDS011;4151;51.110;7.020;2022-12-29T04:28:31;1.00;;;0.90;;
8219;SDS011;4151;51.110;7.020;2022-12-29T04:30:57;1.33;;;0.70;;
8219;SDS011;4151;51.110;7.020;2022-12-29T04:33:23;1.00;;;0.80;;
8219;SDS011;4151;51.110;7.020;2022-12-29T04:35:49;3.17;;;0.90;;
8219;SDS011;4151;51.110;7.020;2022-12-29T04:38:14;4.00;;;0.73;;
8219;SDS011;4151;51.110;7.020;2022-12-29T04:40:41;3.53;;;0.73;;
8219;SDS011;4151;51.110;7.020;2022-12-29T04:43:08;1.37;;;0.70;;
8219;SDS011;4151;51.110;7.020;2022-12-29T04:45:34;1.37;;;0.63;;
8219;SDS011;4151;51.110;7.020;2022-12-29T04:48:00;0.70;;;0.70;;
8219;SDS011;4151;51.110;7.020;2022-12-29T04:50:25;0.70;;;0.70;;
8219;SDS011;4151;51.110;7.020;2022-12-29T04:52:51;1.20;;;0.77;;
8219;SDS011;4151;51.110;7.020;2022-12-29T04:55:17;1.47;;;0.80;;
8219;SDS011;4151;51.110;7.020;2022-12-29T04:57:42;3.23;;;0.90;;
8219;SDS011;4151;51.110;7.020;2022-12-29T05:00:08;0.90;;;0.70;;
8219;SDS011;4151;51.110;7.020;2022-12-29T05:02:35;2.93;;;0.80;;
8219;SDS011;4151;51.110;7.020;2022-12-29T05:05:01;0.80;;;0.80;;
8219;SDS011;4151;51.110;7.020;2022-12-29T05:07:26;0.80;;;0.70;;
8219;SDS011;4151;51.110;7.020;2022-12-29T05:09:52;0.90;;;0.70;;
8219;SDS011;4151;51.110;7.020;2022-12-29T05:12:18;1.57;;;0.70;;
8219;SDS011;4151;51.110;7.020;2022-12-29T05:14:43;0.70;;;0.63;;
8219;SDS011;4151;51.110;7.020;2022-12-29T05:17:09;1.00;;;0.80;;
8219;SDS011;4151;51.110;7.020;2022-12-29T05:19:34;0.93;;;0.83;;
8219;SDS011;4151;51.110;7.020;2022-12-29T05:22:00;2.30;;;0.90;;
8219;SDS011;4151;51.110;7.020;2022-12-29T05:24:25;1.07;;;0.80;;
8219;SDS011;4151;51.110;7.020;2022-12-29T05:26:51;1.37;;;1.00;;
8219;SDS011;4151;51.110;7.020;2022-12-29T05:29:16;3.07;;;0.80;;
8219;SDS011;4151;51.110;7.020;2022-12-29T05:31:42;1.27;;;0.87;;
8219;SDS011;4151;51.110;7.020;2022-12-29T05:34:09;1.20;;;0.70;;
8219;SDS011;4151;51.110;7.020;2022-12-29T05:36:37;1.40;;;0.90;;
8219;SDS011;4151;51.110;7.020;2022-12-29T05:39:03;2.00;;;0.70;;
8219;SDS011;4151;51.110;7.020;2022-12-29T05:41:28;0.70;;;0.70;;
8219;SDS011;4151;51.110;7.020;2022-12-29T05:43:54;2.23;;;0.80;;
8219;SDS011;4151;51.110;7.020;2022-12-29T05:46:20;1.03;;;0.83;;
8219;SDS011;4151;51.110;7.020;2022-12-29T05:48:45;2.53;;;0.80;;
8219;SDS011;4151;51.110;7.020;2022-12-29T05:51:11;1.33;;;0.90;;
8219;SDS011;4151;51.110;7.020;2022-12-29T05:53:36;2.20;;;0.73;;
8219;SDS011;4151;51.110;7.020;2022-12-29T05:56:02;1.73;;;0.70;;
8219;SDS011;4151;51.110;7.020;2022-12-29T05:58:28;0.70;;;0.60;;
8219;SDS011;4151;51.110;7.020;2022-12-29T06:00:53;0.90;;;0.70;;
8219;SDS011;4151;51.110;7.020;2022-12-29T06:03:19;1.67;;;0.70;;
8219;SDS011;4151;51.110;7.020;2022-12-29T06:05:45;2.60;;;0.73;;
8219;SDS011;4151;51.110;7.020;2022-12-29T06:08:11;3.17;;;0.87;;
8219;SDS011;4151;51.110;7.020;2022-12-29T06:10:37;1.10;;;0.60;;
8219;SDS011;4151;51.110;7.020;2022-12-29T06:13:03;1.00;;;0.70;;
8219;SDS011;4151;51.110;7.020;2022-12-29T06:15:30;4.37;;;0.90;;
8219;SDS011;4151;51.110;7.020;2022-12-29T06:17:56;1.67;;;1.00;;
8219;SDS011;4151;51.110;7.020;2022-12-29T06:20:22;1.63;;;0.80;;
8219;SDS011;4151;51.110;7.020;2022-12-29T06:22:47;1.57;;;0.80;;
8219;SDS011;4151;51.110;7.020;2022-12-29T06:25:14;2.03;;;0.80;;
8219;SDS011;4151;51.110;7.020;2022-12-29T06:27:40;0.90;;;0.70;;
8219;SDS011;4151;51.110;7.020;2022-12-29T06:30:06;4.40;;;0.60;;
8219;SDS011;4151;51.110;7.020;2022-12-29T06:32:32;1.47;;;0.80;;
8219;SDS011;4151;51.110;7.020;2022-12-29T06:34:58;1.00;;;0.83;;
8219;SDS011;4151;51.110;7.020;2022-12-29T06:37:24;3.50;;;1.00;;
8219;SDS011;4151;51.110;7.020;2022-12-29T06:39:49;2.07;;;0.80;;
8219;SDS011;4151;51.110;7.020;2022-12-29T06:42:15;1.77;;;0.70;;
8219;SDS011;4151;51.110;7.020;2022-12-29T06:44:40;2.43;;;0.80;;
8219;SDS011;4151;51.110;7.020;2022-12-29T06:47:06;3.50;;;1.97;;
8219;SDS011;4151;51.110;7.020;2022-12-29T06:49:32;2.13;;;0.70;;
8219;SDS011;4151;51.110;7.020;2022-12-29T06:51:57;3.50;;;0.90;;
8219;SDS011;4151;51.110;7.020;2022-12-29T06:54:24;7.50;;;1.40;;
8219;SDS011;4151;51.110;7.020;2022-12-29T06:56:50;6.87;;;1.00;;
8219;SDS011;4151;51.110;7.020;2022-12-29T06:59:15;3.50;;;1.00;;
8219;SDS011;4151;51.110;7.020;2022-12-29T07:01:41;2.27;;;0.90;;
8219;SDS011;4151;51.110;7.020;2022-12-29T07:04:06;1.37;;;0.80;;
8219;SDS011;4151;51.110;7.020;2022-12-29T07:06:32;2.83;;;0.67;;
8219;SDS011;4151;51.110;7.020;2022-12-29T07:08:58;1.43;;;0.60;;
8219;SDS011;4151;51.110;7.020;2022-12-29T07:11:23;2.10;;;0.70;;
8219;SDS011;4151;51.110;7.020;2022-12-29T07:13:49;4.53;;;0.77;;
8219;SDS011;4151;51.110;7.020;2022-12-29T07:16:15;3.37;;;0.97;;
8219;SDS011;4151;51.110;7.020;2022-12-29T07:18:40;1.10;;;0.60;;
8219;SDS011;4151;51.110;7.020;2022-12-29T07:21:06;2.57;;;1.37;;
8219;SDS011;4151;51.110;7.020;2022-12-29T07:23:32;1.33;;;0.70;;
8219;SDS011;4151;51.110;7.020;2022-12-29T07:26:01;9.17;;;0.70;;
8219;SDS011;4151;51.110;7.020;2022-12-29T07:28:28;3.23;;;0.97;;
8219;SDS011;4151;51.110;7.020;2022-12-29T07:30:54;2.40;;;0.83;;
8219;SDS011;4151;51.110;7.020;2022-12-29T07:33:20;2.50;;;0.80;;
8219;SDS011;4151;51.110;7.020;2022-12-29T07:35:46;1.33;;;0.60;;
8219;SDS011;4151;51.110;7.020;2022-12-29T07:38:11;8.23;;;0.87;;
8219;SDS011;4151;51.110;7.020;2022-12-29T07:40:37;4.97;;;1.00;;
8219;SDS011;4151;51.110;7.020;2022-12-29T07:43:03;4.20;;;1.23;;
8219;SDS011;4151;51.110;7.020;2022-12-29T07:45:29;12.10;;;1.40;;
8219;SDS011;4151;51.110;7.020;2022-12-29T07:47:55;3.80;;;0.77;;
8219;SDS011;4151;51.110;7.020;2022-12-29T07:50:20;2.83;;;0.80;;
8219;SDS011;4151;51.110;7.020;2022-12-29T07:52:46;1.90;;;0.73;;
8219;SDS011;4151;51.110;7.020;2022-12-29T07:55:12;1.20;;;0.60;;
8219;SDS011;4151;51.110;7.020;2022-12-29T07:57:41;1.77;;;0.80;;
8219;SDS011;4151;51.110;7.020;2022-12-29T08:00:07;3.23;;;1.03;;
8219;SDS011;4151;51.110;7.020;2022-12-29T08:02:34;2.70;;;0.93;;
8219;SDS011;4151;51.110;7.020;2022-12-29T08:05:00;1.90;;;0.90;;
8219;SDS011;4151;51.110;7.020;2022-12-29T08:07:25;1.90;;;0.90;;
8219;SDS011;4151;51.110;7.020;2022-12-29T08:09:51;1.47;;;0.73;;
8219;SDS011;4151;51.110;7.020;2022-12-29T08:12:17;3.53;;;1.10;;
8219;SDS011;4151;51.110;7.020;2022-12-29T08:14:43;4.60;;;1.40;;
8219;SDS011;4151;51.110;7.020;2022-12-29T08:17:08;3.97;;;1.10;;
8219;SDS011;4151;51.110;7.020;2022-12-29T08:19:34;2.17;;;0.90;;
8219;SDS011;4151;51.110;7.020;2022-12-29T08:22:00;3.00;;;1.00;;
8219;SDS011;4151;51.110;7.020;2022-12-29T08:24:26;2.83;;;0.80;;
8219;SDS011;4151;51.110;7.020;2022-12-29T08:26:52;3.07;;;1.23;;
8219;SDS011;4151;51.110;7.020;2022-12-29T08:29:17;3.57;;;1.30;;
8219;SDS011;4151;51.110;7.020;2022-12-29T08:31:43;5.63;;;1.00;;
8219;SDS011;4151;51.110;7.020;2022-12-29T08:34:08;2.80;;;0.83;;
8219;SDS011;4151;51.110;7.020;2022-12-29T08:36:34;1.17;;;0.90;;
8219;SDS011;4151;51.110;7.020;2022-12-29T08:39:00;3.13;;;1.60;;
8219;SDS011;4151;51.110;7.020;2022-12-29T08:41:25;7.87;;;1.33;;
8219;SDS011;4151;51.110;7.020;2022-12-29T08:43:51;2.23;;;1.00;;
8219;SDS011;4151;51.110;7.020;2022-12-29T08:46:16;9.03;;;0.90;;
8219;SDS011;4151;51.110;7.020;2022-12-29T08:48:42;2.20;;;0.80;;
8219;SDS011;4151;51.110;7.020;2022-12-29T08:51:08;6.37;;;1.30;;
8219;SDS011;4151;51.110;7.020;2022-12-29T08:53:33;5.70;;;0.93;;
8219;SDS011;4151;51.110;7.020;2022-12-29T08:55:59;5.67;;;1.77;;
8219;SDS011;4151;51.110;7.020;2022-12-29T08:58:26;3.77;;;1.03;;
8219;SDS011;4151;51.110;7.020;2022-12-29T09:00:53;3.53;;;1.10;;
8219;SDS011;4151;51.110;7.020;2022-12-29T09:03:19;3.67;;;0.73;;
8219;SDS011;4151;51.110;7.020;2022-12-29T09:05:49;9.57;;;1.53;;
8219;SDS011;4151;51.110;7.020;2022-12-29T09:08:16;7.37;;;1.40;;
8219;SDS011;4151;51.110;7.020;2022-12-29T09:10:42;4.17;;;1.10;;
8219;SDS011;4151;51.110;7.020;2022-12-29T09:13:08;4.40;;;1.00;;
8219;SDS011;4151;51.110;7.020;2022-12-29T09:15:34;3.80;;;1.10;;
8219;SDS011;4151;51.110;7.020;2022-12-29T09:17:59;7.60;;;1.00;;
8219;SDS011;4151;51.110;7.020;2022-12-29T09:20:25;11.57;;;1.10;;
8219;SDS011;4151;51.110;7.020;2022-12-29T09:22:50;4.50;;;1.60;;
8219;SDS011;4151;51.110;7.020;2022-12-29T09:25:16;6.07;;;1.10;;
8219;SDS011;4151;51.110;7.020;2022-12-29T09:27:42;4.20;;;1.00;;
8219;SDS011;4151;51.110;7.020;2022-12-29T09:30:08;7.50;;;1.60;;
8219;SDS011;4151;51.110;7.020;2022-12-29T09:32:35;6.33;;;1.30;;
8219;SDS011;4151;51.110;7.020;2022-12-29T09:35:01;6.23;;;1.30;;
8219;SDS011;4151;51.110;7.020;2022-12-29T09:37:26;3.90;;;1.00;;
8219;SDS011;4151;51.110;7.020;2022-12-29T09:39:52;7.43;;;1.60;;
8219;SDS011;4151;51.110;7.020;2022-12-29T09:42:19;7.30;;;1.37;;
8219;SDS011;4151;51.110;7.020;2022-12-29T09:47:35;5.63;;;1.30;;
8219;SDS011;4151;51.110;7.020;2022-12-29T09:50:03;5.70;;;1.53;;
8219;SDS011;4151;51.110;7.020;2022-12-29T09:55:53;3.10;;;1.30;;
8219;SDS011;4151;51.110;7.020;2022-12-29T10:01:04;2.17;;;1.00;;
8219;SDS011;4151;51.110;7.020;2022-12-29T10:06:19;7.00;;;1.67;;
8219;SDS011;4151;51.110;7.020;2022-12-29T10:09:02;8.17;;;1.17;;
8219;SDS011;4151;51.110;7.020;2022-12-29T10:17:30;6.80;;;1.87;;
8219;SDS011;4151;51.110;7.020;2022-12-29T10:25:44;4.93;;;1.30;;
8219;SDS011;4151;51.110;7.020;2022-12-29T10:28:16;4.93;;;1.30;;
8219;SDS011;4151;51.110;7.020;2022-12-29T10:30:47;5.53;;;1.40;;
8219;SDS011;4151;51.110;7.020;2022-12-29T10:33:25;5.07;;;1.27;;
8219;SDS011;4151;51.110;7.020;2022-12-29T10:35:56;6.83;;;1.73;;
8219;SDS011;4151;51.110;7.020;2022-12-29T10:38:27;5.23;;;1.30;;
8219;SDS011;4151;51.110;7.020;2022-12-29T10:41:05;2.23;;;1.10;;
8219;SDS011;4151;51.110;7.020;2022-12-29T10:43:45;2.33;;;1.20;;
8219;SDS011;4151;51.110;7.020;2022-12-29T10:46:14;6.33;;;1.37;;
8219;SDS011;4151;51.110;7.020;2022-12-29T10:48:48;6.87;;;1.57;;
8219;SDS011;4151;51.110;7.020;2022-12-29T10:51:20;3.00;;;0.90;;
8219;SDS011;4151;51.110;7.020;2022-12-29T10:53:54;4.33;;;1.10;;
8219;SDS011;4151;51.110;7.020;2022-12-29T10:56:43;7.27;;;1.20;;
8219;SDS011;4151;51.110;7.020;2022-12-29T10:59:20;7.70;;;1.27;;
8219;SDS011;4151;51.110;7.020;2022-12-29T11:02:06;7.43;;;1.23;;
8219;SDS011;4151;51.110;7.020;2022-12-29T11:07:37;14.30;;;1.67;;
8219;SDS011;4151;51.110;7.020;2022-12-29T11:12:59;6.67;;;1.20;;
8219;SDS011;4151;51.110;7.020;2022-12-29T11:15:26;5.60;;;1.47;;
8219;SDS011;4151;51.110;7.020;2022-12-29T11:17:56;16.40;;;1.60;;
8219;SDS011;4151;51.110;7.020;2022-12-29T11:22:53;10.30;;;1.80;;
8219;SDS011;4151;51.110;7.020;2022-12-29T11:25:18;13.00;;;1.27;;
8219;SDS011;4151;51.110;7.020;2022-12-29T11:28:04;6.73;;;2.17;;
8219;SDS011;4151;51.110;7.020;2022-12-29T11:30:40;6.50;;;1.30;;
8219;SDS011;4151;51.110;7.020;2022-12-29T11:33:06;8.40;;;1.40;;
8219;SDS011;4151;51.110;7.020;2022-12-29T11:35:33;4.50;;;1.00;;
8219;SDS011;4151;51.110;7.020;2022-12-29T11:38:21;11.63;;;1.30;;
8219;SDS011;4151;51.110;7.020;2022-12-29T11:40:55;4.40;;;1.10;;
8219;SDS011;4151;51.110;7.020;2022-12-29T11:43:31;6.00;;;1.37;;
8219;SDS011;4151;51.110;7.020;2022-12-29T11:46:04;3.93;;;1.10;;
8219;SDS011;4151;51.110;7.020;2022-12-29T11:56:04;4.27;;;1.63;;
8219;SDS011;4151;51.110;7.020;2022-12-29T11:58:34;9.70;;;1.67;;
8219;SDS011;4151;51.110;7.020;2022-12-29T12:01:02;7.40;;;2.00;;
8219;SDS011;4151;51.110;7.020;2022-12-29T12:03:32;4.13;;;1.03;;
8219;SDS011;4151;51.110;7.020;2022-12-29T12:06:03;9.83;;;1.70;;
8219;SDS011;4151;51.110;7.020;2022-12-29T12:11:33;9.23;;;1.80;;
8219;SDS011;4151;51.110;7.020;2022-12-29T12:14:17;7.87;;;1.90;;
8219;SDS011;4151;51.110;7.020;2022-12-29T12:16:58;9.10;;;1.80;;
8219;SDS011;4151;51.110;7.020;2022-12-29T12:22:24;4.87;;;1.40;;
8219;SDS011;4151;51.110;7.020;2022-12-29T12:25:12;6.53;;;1.30;;
8219;SDS011;4151;51.110;7.020;2022-12-29T12:30:34;5.27;;;1.80;;
8219;SDS011;4151;51.110;7.020;2022-12-29T12:51:51;5.10;;;1.57;;
8219;SDS011;4151;51.110;7.020;2022-12-29T12:57:31;7.40;;;1.70;;
8219;SDS011;4151;51.110;7.020;2022-12-29T13:00:11;5.63;;;1.47;;
8219;SDS011;4151;51.110;7.020;2022-12-29T13:08:17;4.43;;;1.10;;
8219;SDS011;4151;51.110;7.020;2022-12-29T13:10:48;12.13;;;1.20;;
8219;SDS011;4151;51.110;7.020;2022-12-29T13:13:30;4.43;;;1.30;;
8219;SDS011;4151;51.110;7.020;2022-12-29T13:18:58;8.03;;;1.33;;
8219;SDS011;4151;51.110;7.020;2022-12-29T13:28:02;6.33;;;1.30;;
8219;SDS011;4151;51.110;7.020;2022-12-29T13:30:35;7.03;;;1.17;;
8219;SDS011;4151;51.110;7.020;2022-12-29T13:33:38;3.80;;;1.13;;
8219;SDS011;4151;51.110;7.020;2022-12-29T13:36:09;5.73;;;1.70;;
8219;SDS011;4151;51.110;7.020;2022-12-29T13:38:48;11.30;;;1.70;;
8219;SDS011;4151;51.110;7.020;2022-12-29T13:41:40;8.10;;;2.00;;
8219;SDS011;4151;51.110;7.020;2022-12-29T13:44:32;9.70;;;1.23;;
8219;SDS011;4151;51.110;7.020;2022-12-29T13:46:59;7.80;;;1.30;;
8219;SDS011;4151;51.110;7.020;2022-12-29T13:49:29;9.77;;;1.30;;
8219;SDS011;4151;51.110;7.020;2022-12-29T13:51:56;6.17;;;1.60;;
8219;SDS011;4151;51.110;7.020;2022-12-29T13:57:03;4.70;;;1.70;;
8219;SDS011;4151;51.110;7.020;2022-12-29T14:02:31;7.00;;;1.23;;
8219;SDS011;4151;51.110;7.020;2022-12-29T14:07:47;7.43;;;1.27;;
8219;SDS011;4151;51.110;7.020;2022-12-29T14:15:28;8.83;;;1.73;;
8219;SDS011;4151;51.110;7.020;2022-12-29T14:20:58;6.77;;;1.50;;
8219;SDS011;4151;51.110;7.020;2022-12-29T14:23:43;10.37;;;1.63;;
8219;SDS011;4151;51.110;7.020;2022-12-29T14:26:18;3.40;;;1.40;;
8219;SDS011;4151;51.110;7.020;2022-12-29T14:29:16;7.30;;;1.30;;
8219;SDS011;4151;51.110;7.020;2022-12-29T14:32:33;2.70;;;1.30;;
8219;SDS011;4151;51.110;7.020;2022-12-29T14:34:49;4.63;;;1.60;;
8219;SDS011;4151;51.110;7.020;2022-12-29T14:37:23;14.53;;;1.33;;
8219;SDS011;4151;51.110;7.020;2022-12-29T14:42:31;6.07;;;1.10;;
8219;SDS011;4151;51.110;7.020;2022-12-29T14:45:07;4.30;;;1.33;;
8219;SDS011;4151;51.110;7.020;2022-12-29T14:47:48;6.60;;;1.30;;
8219;SDS011;4151;51.110;7.020;2022-12-29T14:50:23;13.93;;;2.00;;
8219;SDS011;4151;51.110;7.020;2022-12-29T14:52:55;3.63;;;1.20;;
8219;SDS011;4151;51.110;7.020;2022-12-29T14:58:35;2.70;;;1.40;;
8219;SDS011;4151;51.110;7.020;2022-12-29T15:01:39;3.70;;;1.50;;
8219;SDS011;4151;51.110;7.020;2022-12-29T15:04:27;7.00;;;1.20;;
8219;SDS011;4151;51.110;7.020;2022-12-29T15:06:56;4.93;;;1.13;;
8219;SDS011;4151;51.110;7.020;2022-12-29T15:11:55;3.30;;;1.20;;
8219;SDS011;4151;51.110;7.020;2022-12-29T15:14:34;3.47;;;1.47;;
8219;SDS011;4151;51.110;7.020;2022-12-29T15:17:29;3.63;;;1.43;;
8219;SDS011;4151;51.110;7.020;2022-12-29T15:19:58;4.33;;;1.30;;
8219;SDS011;4151;51.110;7.020;2022-12-29T15:22:47;5.83;;;1.80;;
8219;SDS011;4151;51.110;7.020;2022-12-29T15:25:17;5.77;;;1.40;;
8219;SDS011;4151;51.110;7.020;2022-12-29T15:27:47;9.90;;;1.80;;
8219;SDS011;4151;51.110;7.020;2022-12-29T15:30:15;7.10;;;1.37;;
8219;SDS011;4151;51.110;7.020;2022-12-29T15:32:44;6.13;;;3.00;;
8219;SDS011;4151;51.110;7.020;2022-12-29T15:38:19;12.13;;;1.50;;
8219;SDS011;4151;51.110;7.020;2022-12-29T15:40:50;9.33;;;1.50;;
8219;SDS011;4151;51.110;7.020;2022-12-29T15:46:01;4.50;;;1.20;;
8219;SDS011;4151;51.110;7.020;2022-12-29T15:48:27;10.50;;;2.07;;
8219;SDS011;4151;51.110;7.020;2022-12-29T15:50:53;7.03;;;1.27;;
8219;SDS011;4151;51.110;7.020;2022-12-29T15:53:29;6.70;;;1.77;;
8219;SDS011;4151;51.110;7.020;2022-12-29T15:56:00;2.40;;;1.70;;
8219;SDS011;4151;51.110;7.020;2022-12-29T15:58:39;3.53;;;1.30;;
8219;SDS011;4151;51.110;7.020;2022-12-29T16:01:28;4.97;;;1.40;;
8219;SDS011;4151;51.110;7.020;2022-12-29T16:03:57;8.37;;;1.67;;
8219;SDS011;4151;51.110;7.020;2022-12-29T16:06:37;6.40;;;1.63;;
8219;SDS011;4151;51.110;7.020;2022-12-29T16:09:15;9.47;;;2.07;;
8219;SDS011;4151;51.110;7.020;2022-12-29T16:11:52;9.67;;;1.80;;
8219;SDS011;4151;51.110;7.020;2022-12-29T16:14:21;6.97;;;2.17;;
8219;SDS011;4151;51.110;7.020;2022-12-29T16:16:53;11.90;;;2.23;;
8219;SDS011;4151;51.110;7.020;2022-12-29T16:21:53;9.27;;;1.60;;
8219;SDS011;4151;51.110;7.020;2022-12-29T16:24:21;4.90;;;1.50;;
8219;SDS011;4151;51.110;7.020;2022-12-29T16:26:57;9.90;;;1.90;;
8219;SDS011;4151;51.110;7.020;2022-12-29T16:29:30;8.03;;;1.23;;
8219;SDS011;4151;51.110;7.020;2022-12-29T16:31:59;5.70;;;1.50;;
8219;SDS011;4151;51.110;7.020;2022-12-29T16:34:31;9.30;;;2.50;;
8219;SDS011;4151;51.110;7.020;2022-12-29T16:39:36;6.40;;;1.70;;
8219;SDS011;4151;51.110;7.020;2022-12-29T16:50:29;10.77;;;2.23;;
8219;SDS011;4151;51.110;7.020;2022-12-29T16:52:56;10.27;;;2.33;;
8219;SDS011;4151;51.110;7.020;2022-12-29T16:55:22;11.03;;;2.37;;
8219;SDS011;4151;51.110;7.020;2022-12-29T16:57:48;12.30;;;2.43;;
8219;SDS011;4151;51.110;7.020;2022-12-29T17:00:23;9.80;;;1.80;;
8219;SDS011;4151;51.110;7.020;2022-12-29T17:02:52;8.97;;;2.20;;
8219;SDS011;4151;51.110;7.020;2022-12-29T17:05:21;15.53;;;1.60;;
8219;SDS011;4151;51.110;7.020;2022-12-29T17:07:46;7.57;;;1.83;;
8219;SDS011;4151;51.110;7.020;2022-12-29T17:10:12;9.77;;;1.57;;
8219;SDS011;4151;51.110;7.020;2022-12-29T17:12:39;6.50;;;2.00;;
8219;SDS011;4151;51.110;7.020;2022-12-29T17:15:10;2.97;;;1.37;;
8219;SDS011;4151;51.110;7.020;2022-12-29T17:17:51;8.93;;;1.97;;
8219;SDS011;4151;51.110;7.020;2022-12-29T17:20:20;12.03;;;2.00;;
8219;SDS011;4151;51.110;7.020;2022-12-29T17:22:47;6.70;;;1.93;;
8219;SDS011;4151;51.110;7.020;2022-12-29T17:25:14;6.93;;;1.40;;
8219;SDS011;4151;51.110;7.020;2022-12-29T17:27:54;9.93;;;2.23;;
8219;SDS011;4151;51.110;7.020;2022-12-29T17:30:23;10.23;;;2.50;;
8219;SDS011;4151;51.110;7.020;2022-12-29T17:32:53;13.83;;;2.10;;
8219;SDS011;4151;51.110;7.020;2022-12-29T17:35:34;12.30;;;1.93;;
8219;SDS011;4151;51.110;7.020;2022-12-29T17:38:00;15.97;;;2.30;;
8219;SDS011;4151;51.110;7.020;2022-12-29T17:40:26;6.13;;;1.87;;
8219;SDS011;4151;51.110;7.020;2022-12-29T17:42:54;7.53;;;1.67;;
8219;SDS011;4151;51.110;7.020;2022-12-29T17:45:31;7.47;;;1.53;;
8219;SDS011;4151;51.110;7.020;2022-12-29T17:47:57;14.43;;;1.80;;
8219;SDS011;4151;51.110;7.020;2022-12-29T17:50:25;13.03;;;1.93;;
8219;SDS011;4151;51.110;7.020;2022-12-29T17:52:57;12.47;;;2.00;;
8219;SDS011;4151;51.110;7.020;2022-12-29T17:55:27;9.70;;;2.00;;
8219;SDS011;4151;51.110;7.020;2022-12-29T17:57:53;13.10;;;2.07;;
8219;SDS011;4151;51.110;7.020;2022-12-29T18:00:23;13.43;;;2.13;;
8219;SDS011;4151;51.110;7.020;2022-12-29T18:02:54;12.73;;;2.60;;
8219;SDS011;4151;51.110;7.020;2022-12-29T18:05:22;27.43;;;7.47;;
8219;SDS011;4151;51.110;7.020;2022-12-29T18:07:53;16.27;;;2.43;;
8219;SDS011;4151;51.110;7.020;2022-12-29T18:10:20;8.40;;;2.27;;
8219;SDS011;4151;51.110;7.020;2022-12-29T18:12:47;9.00;;;2.10;;
8219;SDS011;4151;51.110;7.020;2022-12-29T18:15:20;8.57;;;2.30;;